Skip Navigation Links Skip Navigation Links

Current Weather

Tan-Tan, Morocco

For information only: do not use for flight planning or navigation.
Latest weather
Observation time Monday, March 19, 2018 10:00 AM WET
Local time Monday, March 19, 2018 10:57 AM WET
Flight conditions Visual Meteorological Conditions
Wind direction North (360°)
Wind speed 23 mph
Visibility 6.2 mi.
Sky condition
Ceiling unlimited
Cloud layer scattered clouds 1,600 ft.
Temperature 64°F
Dewpoint 50°F
Altimeter 30.12 in.Hg
Derived measurements
Relative humidity 60%
Density altitude 529 ft.
No significant changes expected in the next two hours.
METAR GMAT 191000Z 36020KT 9999 SCT016 18/10 Q1020 NOSIG


Location code

InnerDrive.Weather 4.0.6615.0 Release CLR 4.0.30319.42000
Copyright ©2018 Inner Drive Technology. All rights reserved. Portions Copyright ©1986-2018 David Braverman.

Find weather

Site navigation

Skip Navigation Links

Place info

Page info

PayPal - The safer, easier way to pay online!

Return home.

Copyright ©2018 Inner Drive Technology. Purveyors of fine, hand-crafted computer software. Page printed 2018-03-19T10:57:36 UTC.